createdAt,value
2023-01-12T00:01:35.959Z,13.28
2023-01-12T00:04:25.407Z,13.35
2023-01-12T00:07:18.188Z,13.37
2023-01-12T00:10:08.419Z,13.36
2023-01-12T00:12:58.968Z,13.37
2023-01-12T00:16:02.067Z,13.32
2023-01-12T00:18:51.906Z,13.46
2023-01-12T00:21:56.540Z,13.49
2023-01-12T00:24:50.036Z,13.40
2023-01-12T00:27:39.373Z,13.56
2023-01-12T00:30:28.679Z,13.63
2023-01-12T00:33:18.011Z,13.62
2023-01-12T00:36:09.832Z,13.48
2023-01-12T00:38:59.060Z,13.47
2023-01-12T00:42:07.171Z,13.39
2023-01-12T00:45:14.149Z,13.29
2023-01-12T00:48:03.404Z,13.20
2023-01-12T00:50:52.633Z,13.21
2023-01-12T00:53:41.882Z,13.28
2023-01-12T00:56:31.156Z,13.24
2023-01-12T00:59:21.939Z,13.22
2023-01-12T01:02:11.607Z,13.38
2023-01-12T01:05:01.301Z,13.25
2023-01-12T01:07:50.534Z,13.08
2023-01-12T01:10:39.969Z,13.11
2023-01-12T01:13:29.202Z,13.06
2023-01-12T01:16:20.078Z,13.05
2023-01-12T01:19:09.807Z,13.15
2023-01-12T01:21:59.137Z,13.26
2023-01-12T01:24:49.613Z,13.22
2023-01-12T01:27:38.874Z,13.20
2023-01-12T01:30:28.240Z,13.25
2023-01-12T01:33:18.895Z,13.15
2023-01-12T01:36:08.701Z,13.14
2023-01-12T01:38:58.026Z,13.19
2023-01-12T01:41:48.284Z,13.08
2023-01-12T01:44:56.028Z,13.04
2023-01-12T01:47:49.541Z,13.11
2023-01-12T01:50:44.336Z,13.15
2023-01-12T01:53:37.510Z,13.17
2023-01-12T01:56:30.899Z,13.18
2023-01-12T01:59:25.961Z,13.16
2023-01-12T02:02:16.340Z,13.14
2023-01-12T02:05:06.829Z,13.17
2023-01-12T02:08:04.417Z,13.22
2023-01-12T02:10:56.099Z,13.24
2023-01-12T02:14:03.152Z,13.13
2023-01-12T02:17:12.016Z,13.11
2023-01-12T02:20:48.399Z,13.19
2023-01-12T02:24:28.521Z,13.22
2023-01-12T02:27:38.071Z,13.07
2023-01-12T02:31:07.503Z,13.02
2023-01-12T02:34:11.380Z,12.97
2023-01-12T02:37:13.417Z,13.03
2023-01-12T02:40:08.981Z,12.99
2023-01-12T02:43:08.263Z,12.97
2023-01-12T02:46:04.991Z,13.01
2023-01-12T02:49:03.003Z,13.00
2023-01-12T02:51:57.479Z,13.05
2023-01-12T02:54:50.547Z,13.14
2023-01-12T02:57:39.964Z,13.09
2023-01-12T03:00:30.247Z,13.00
2023-01-12T03:03:20.608Z,13.00
2023-01-12T03:06:11.480Z,13.09
2023-01-12T03:09:01.370Z,13.09
2023-01-12T03:11:54.972Z,12.97
2023-01-12T03:14:49.161Z,13.09
2023-01-12T03:17:43.715Z,13.01
2023-01-12T03:20:36.529Z,13.05
2023-01-12T03:23:33.145Z,13.20
2023-01-12T03:26:27.962Z,13.13
2023-01-12T03:29:24.226Z,13.06
2023-01-12T03:32:13.832Z,13.05
2023-01-12T03:35:05.601Z,13.02
2023-01-12T03:38:00.061Z,13.01
2023-01-12T03:40:59.954Z,12.91
2023-01-12T03:43:53.787Z,12.83
2023-01-12T03:46:49.804Z,12.82
2023-01-12T03:49:45.475Z,12.74
2023-01-12T03:52:37.576Z,12.81
2023-01-12T03:55:30.073Z,12.73
2023-01-12T03:58:21.085Z,12.67
2023-01-12T04:01:10.603Z,12.69
2023-01-12T04:04:00.002Z,12.64
2023-01-12T04:06:49.289Z,12.75
2023-01-12T04:09:38.681Z,12.68
2023-01-12T04:12:28.003Z,12.76
2023-01-12T04:15:18.671Z,12.69
2023-01-12T04:18:07.889Z,12.65
2023-01-12T04:20:57.103Z,12.65
2023-01-12T04:23:45.835Z,12.60
2023-01-12T04:26:35.019Z,12.60
2023-01-12T04:29:24.267Z,12.52
2023-01-12T04:32:14.962Z,12.63
2023-01-12T04:35:04.295Z,12.62
2023-01-12T04:37:53.982Z,12.65
2023-01-12T04:40:43.194Z,12.62
2023-01-12T04:43:32.451Z,12.58
2023-01-12T04:46:21.641Z,12.55
2023-01-12T04:49:12.405Z,12.55
2023-01-12T04:52:01.700Z,12.66
2023-01-12T04:54:50.863Z,12.56
2023-01-12T04:57:40.139Z,12.46
2023-01-12T05:00:29.390Z,12.58
2023-01-12T05:03:19.077Z,12.54
2023-01-12T05:06:10.641Z,12.62
2023-01-12T05:09:19.843Z,12.47
2023-01-12T05:12:09.405Z,12.55
2023-01-12T05:14:58.614Z,12.66
2023-01-12T05:17:47.778Z,12.68
2023-01-12T05:20:37.088Z,12.68
2023-01-12T05:23:28.058Z,12.69
2023-01-12T05:26:17.346Z,12.59
2023-01-12T05:29:06.525Z,12.52
2023-01-12T05:31:55.903Z,12.61
2023-01-12T05:34:45.196Z,12.54
2023-01-12T05:37:34.439Z,12.62
2023-01-12T05:40:25.385Z,12.44
2023-01-12T05:43:32.873Z,12.48
2023-01-12T05:46:25.200Z,12.50
2023-01-12T05:49:14.534Z,12.46
2023-01-12T05:52:03.734Z,12.49
2023-01-12T05:54:53.007Z,12.48
2023-01-12T05:57:43.707Z,12.49
2023-01-12T06:00:32.989Z,12.44
2023-01-12T06:03:22.302Z,12.42
2023-01-12T06:06:11.554Z,12.44
2023-01-12T06:09:02.020Z,12.46
2023-01-12T06:12:08.723Z,12.48
2023-01-12T06:14:59.391Z,12.53
2023-01-12T06:17:48.632Z,12.61
2023-01-12T06:20:37.940Z,12.50
2023-01-12T06:23:35.723Z,12.56
2023-01-12T06:26:25.411Z,12.57
2023-01-12T06:29:14.710Z,12.65
2023-01-12T06:32:05.884Z,12.58
2023-01-12T06:34:55.354Z,12.69
2023-01-12T06:37:45.118Z,12.69
2023-01-12T06:40:34.460Z,12.68
2023-01-12T06:43:25.695Z,12.70
2023-01-12T06:46:15.098Z,12.58
2023-01-12T06:49:05.814Z,12.74
2023-01-12T06:51:55.041Z,12.74
2023-01-12T06:54:44.237Z,12.80
2023-01-12T06:57:33.495Z,12.63
2023-01-12T07:00:23.657Z,12.63
2023-01-12T07:03:19.247Z,12.78
2023-01-12T07:06:10.290Z,12.59
2023-01-12T07:08:59.491Z,12.82
2023-01-12T07:11:48.798Z,12.88
2023-01-12T07:14:38.065Z,12.81
2023-01-12T07:17:27.274Z,12.79
2023-01-12T07:20:16.983Z,12.80
2023-01-12T07:23:07.744Z,12.85
2023-01-12T07:25:58.912Z,12.78
2023-01-12T07:28:48.472Z,12.87
2023-01-12T07:31:37.788Z,12.94
2023-01-12T07:34:27.052Z,12.87
2023-01-12T07:37:16.311Z,12.96
2023-01-12T07:40:08.651Z,12.96
2023-01-12T07:43:01.788Z,12.73
2023-01-12T07:45:51.932Z,12.83
2023-01-12T07:48:41.155Z,12.77
2023-01-12T07:51:31.787Z,12.71
2023-01-12T07:54:21.328Z,12.19
2023-01-12T07:57:12.901Z,12.66
2023-01-12T08:00:02.147Z,12.80
2023-01-12T08:02:51.784Z,12.78
2023-01-12T08:05:41.086Z,12.99
2023-01-12T08:08:30.508Z,12.86
2023-01-12T08:11:19.853Z,12.88
2023-01-12T08:14:12.674Z,12.81
2023-01-12T08:17:03.780Z,12.89
2023-01-12T08:19:58.738Z,12.84
2023-01-12T08:22:54.191Z,12.56
2023-01-12T08:25:48.236Z,12.62
2023-01-12T08:28:43.394Z,12.42
2023-01-12T08:31:34.728Z,12.40
2023-01-12T08:34:24.028Z,12.44
2023-01-12T08:37:17.556Z,12.30
2023-01-12T08:40:10.243Z,12.31
2023-01-12T08:42:59.488Z,12.31
2023-01-12T08:45:48.673Z,12.29
2023-01-12T08:48:40.403Z,12.28
2023-01-12T08:51:30.040Z,12.17
2023-01-12T08:54:21.253Z,12.14
2023-01-12T08:57:10.481Z,12.11
2023-01-12T08:59:59.753Z,12.15
2023-01-12T09:02:49.067Z,12.15
2023-01-12T09:05:39.810Z,12.12
2023-01-12T09:08:29.972Z,12.08
2023-01-12T09:11:19.343Z,11.91
2023-01-12T09:14:08.646Z,12.06
2023-01-12T09:16:58.122Z,12.02
2023-01-12T09:19:49.985Z,11.95
2023-01-12T09:22:40.732Z,12.09
2023-01-12T09:25:29.888Z,12.10
2023-01-12T09:28:19.041Z,11.85
2023-01-12T09:31:11.094Z,11.46
2023-01-12T09:34:00.875Z,11.21
2023-01-12T09:36:52.492Z,10.82
2023-01-12T09:39:43.102Z,10.40
2023-01-12T09:42:49.558Z,10.14
2023-01-12T09:45:55.938Z,9.93
2023-01-12T09:48:46.014Z,9.91
2023-01-12T09:51:40.694Z,9.75
2023-01-12T09:54:29.983Z,9.79
2023-01-12T09:58:00.125Z,9.65
2023-01-12T10:00:52.744Z,9.75
2023-01-12T10:03:44.075Z,9.75
2023-01-12T10:06:35.629Z,9.79
2023-01-12T10:09:26.734Z,9.88
2023-01-12T10:12:25.613Z,9.93
2023-01-12T10:15:32.412Z,9.97
2023-01-12T10:18:28.311Z,10.12
2023-01-12T10:21:17.565Z,10.07
2023-01-12T10:24:13.294Z,10.29
2023-01-12T10:27:05.376Z,10.39
2023-01-12T10:29:54.784Z,10.50
2023-01-12T10:32:46.019Z,10.63
2023-01-12T10:35:35.243Z,10.65
2023-01-12T10:38:31.497Z,10.75
2023-01-12T10:41:23.094Z,10.59
2023-01-12T10:44:17.656Z,10.61
2023-01-12T10:47:11.721Z,10.50
2023-01-12T10:50:22.834Z,10.60
2023-01-12T10:53:20.435Z,10.76
2023-01-12T10:56:20.934Z,10.83
2023-01-12T10:59:22.069Z,10.95
2023-01-12T11:02:17.300Z,11.09
2023-01-12T11:05:31.467Z,11.28
2023-01-12T11:08:27.369Z,11.45
2023-01-12T11:11:30.051Z,11.47
2023-01-12T11:14:29.928Z,11.41
2023-01-12T11:17:37.977Z,11.38
2023-01-12T11:20:34.710Z,11.43
2023-01-12T11:23:33.426Z,11.48
2023-01-12T11:26:29.947Z,11.40
2023-01-12T11:29:36.940Z,11.48
2023-01-12T11:32:37.895Z,11.40
2023-01-12T11:35:37.559Z,10.90
2023-01-12T11:38:36.662Z,10.12
2023-01-12T11:41:31.415Z,9.77
2023-01-12T11:44:26.486Z,9.53
2023-01-12T11:47:21.711Z,9.35
2023-01-12T11:50:17.373Z,9.52
2023-01-12T11:53:21.469Z,9.66
2023-01-12T11:56:29.579Z,9.82
2023-01-12T11:59:25.813Z,10.04
2023-01-12T12:02:34.160Z,10.65
2023-01-12T12:05:36.809Z,11.27
2023-01-12T12:08:44.064Z,11.42
2023-01-12T12:11:42.675Z,11.88
2023-01-12T12:14:57.888Z,11.66
2023-01-12T12:18:00.084Z,11.42
2023-01-12T12:21:03.148Z,11.19
2023-01-12T12:24:06.837Z,11.12
2023-01-12T12:27:08.290Z,11.10
2023-01-12T12:30:32.958Z,10.97
2023-01-12T12:33:31.817Z,10.71
2023-01-12T12:36:32.259Z,10.69
2023-01-12T12:39:50.140Z,10.56
2023-01-12T12:43:10.047Z,10.47
2023-01-12T12:46:10.566Z,10.28
2023-01-12T12:49:06.333Z,10.29
2023-01-12T12:51:59.495Z,10.26
2023-01-12T12:54:51.592Z,10.29
2023-01-12T12:58:03.293Z,10.21
2023-01-12T13:00:54.939Z,10.05
2023-01-12T13:03:48.820Z,10.01
2023-01-12T13:06:40.321Z,10.01
2023-01-12T13:09:42.563Z,9.94
2023-01-12T13:12:45.427Z,9.76
2023-01-12T13:15:37.849Z,9.94
2023-01-12T13:19:04.296Z,10.21
2023-01-12T13:21:58.161Z,10.16
2023-01-12T13:24:47.674Z,10.32
2023-01-12T13:28:10.394Z,10.28
2023-01-12T13:31:00.418Z,10.46
2023-01-12T13:33:50.182Z,10.21
2023-01-12T13:36:40.256Z,10.13
2023-01-12T13:39:30.281Z,9.98
2023-01-12T13:42:40.137Z,10.04
2023-01-12T13:45:31.507Z,9.85
2023-01-12T13:48:22.624Z,9.92
2023-01-12T13:51:21.571Z,9.72
2023-01-12T13:54:14.995Z,9.69
2023-01-12T13:57:10.744Z,9.65
2023-01-12T14:00:04.776Z,9.73
2023-01-12T14:03:04.731Z,9.62
2023-01-12T14:06:06.730Z,9.61
2023-01-12T14:09:12.775Z,9.80
2023-01-12T14:12:39.859Z,9.82
2023-01-12T14:15:53.538Z,10.06
2023-01-12T14:18:46.511Z,10.11
2023-01-12T14:21:44.059Z,10.15
2023-01-12T14:24:33.569Z,10.04
2023-01-12T14:27:27.483Z,10.07
2023-01-12T14:30:17.600Z,10.13
2023-01-12T14:33:06.930Z,10.29
2023-01-12T14:36:03.567Z,10.29
2023-01-12T14:38:53.870Z,10.34
2023-01-12T14:42:05.247Z,10.50
2023-01-12T14:45:26.344Z,10.32
2023-01-12T14:48:24.772Z,10.13
2023-01-12T14:51:27.208Z,10.07
2023-01-12T14:54:25.891Z,10.01
2023-01-12T14:57:25.100Z,9.97
2023-01-12T15:00:23.781Z,9.80
2023-01-12T15:03:35.088Z,9.72
2023-01-12T15:06:29.945Z,9.73
2023-01-12T15:09:30.491Z,9.61
2023-01-12T15:12:44.235Z,9.79
2023-01-12T15:15:54.348Z,9.81
2023-01-12T15:19:01.305Z,9.67
2023-01-12T15:22:09.581Z,9.70
2023-01-12T15:25:18.328Z,9.72
2023-01-12T15:28:09.487Z,9.78
2023-01-12T15:30:58.933Z,9.87
2023-01-12T15:33:48.370Z,9.87
2023-01-12T15:36:37.674Z,9.77
2023-01-12T15:39:28.645Z,9.79
2023-01-12T15:42:22.181Z,9.69
2023-01-12T15:45:29.167Z,9.60
2023-01-12T15:48:18.519Z,9.70
2023-01-12T15:51:10.826Z,9.70
2023-01-12T15:54:00.136Z,9.69
2023-01-12T15:56:50.787Z,9.69
2023-01-12T15:59:40.603Z,9.66
2023-01-12T16:02:36.854Z,9.76
2023-01-12T16:05:27.256Z,9.58
2023-01-12T16:08:16.601Z,9.51
2023-01-12T16:11:13.674Z,9.50
2023-01-12T16:14:04.459Z,9.48
2023-01-12T16:16:53.752Z,9.49
2023-01-12T16:19:43.919Z,9.36
2023-01-12T16:22:33.521Z,9.24
2023-01-12T16:25:22.722Z,9.39
2023-01-12T16:28:12.049Z,9.47
2023-01-12T16:31:08.032Z,9.40
2023-01-12T16:33:57.323Z,9.39
2023-01-12T16:36:46.613Z,9.34
2023-01-12T16:39:35.878Z,9.25
2023-01-12T16:42:25.134Z,9.33
2023-01-12T16:45:14.988Z,9.33
2023-01-12T16:48:06.165Z,9.13
2023-01-12T16:50:55.403Z,9.21
2023-01-12T16:53:46.261Z,9.10
2023-01-12T16:56:35.546Z,9.16
2023-01-12T16:59:24.947Z,9.23
2023-01-12T17:02:16.807Z,9.32
2023-01-12T17:05:10.152Z,9.13
2023-01-12T17:07:59.293Z,9.13
2023-01-12T17:10:48.577Z,9.15
2023-01-12T17:13:37.986Z,8.99
2023-01-12T17:16:29.531Z,8.94
2023-01-12T17:19:19.290Z,8.64
2023-01-12T17:22:11.155Z,8.75
2023-01-12T17:25:00.655Z,8.63
2023-01-12T17:27:50.158Z,8.53
2023-01-12T17:30:41.101Z,8.62
2023-01-12T17:33:30.446Z,8.54
2023-01-12T17:36:20.127Z,8.48
2023-01-12T17:39:11.344Z,8.45
2023-01-12T17:42:17.857Z,8.54
2023-01-12T17:45:08.522Z,8.67
2023-01-12T17:47:58.510Z,8.56
2023-01-12T17:50:48.223Z,8.56
2023-01-12T17:53:37.477Z,8.62
2023-01-12T17:56:31.530Z,8.51
2023-01-12T17:59:23.680Z,8.67
2023-01-12T18:02:14.414Z,8.61
2023-01-12T18:05:03.875Z,8.77
2023-01-12T18:07:53.104Z,8.76
2023-01-12T18:10:42.285Z,8.81
2023-01-12T18:13:33.285Z,8.94
2023-01-12T18:16:22.919Z,8.86
2023-01-12T18:19:14.969Z,8.91
2023-01-12T18:22:06.983Z,8.96
2023-01-12T18:24:56.389Z,8.91
2023-01-12T18:27:45.932Z,8.96
2023-01-12T18:30:37.145Z,8.81
2023-01-12T18:33:26.721Z,8.76
2023-01-12T18:36:19.094Z,8.61
2023-01-12T18:39:13.665Z,8.62
2023-01-12T18:42:19.947Z,8.66
2023-01-12T18:45:10.674Z,8.70
2023-01-12T18:48:18.580Z,8.71
2023-01-12T18:51:24.954Z,8.76
2023-01-12T18:54:14.227Z,8.76
2023-01-12T18:57:05.832Z,8.75
2023-01-12T18:59:59.816Z,8.61
2023-01-12T19:02:49.147Z,8.60
2023-01-12T19:05:53.313Z,8.72
2023-01-12T19:09:08.196Z,8.81
2023-01-12T19:11:57.469Z,8.65
2023-01-12T19:15:04.453Z,8.77
2023-01-12T19:17:54.008Z,8.83
2023-01-12T19:20:44.766Z,8.82
2023-01-12T19:23:51.265Z,8.74
2023-01-12T19:26:58.433Z,8.83
2023-01-12T19:29:47.831Z,8.96
2023-01-12T19:32:37.069Z,8.95
2023-01-12T19:35:27.228Z,8.85
2023-01-12T19:38:17.859Z,8.97
2023-01-12T19:41:12.764Z,8.84
2023-01-12T19:44:05.351Z,8.90
2023-01-12T19:46:54.602Z,8.91
2023-01-12T19:49:43.880Z,9.04
2023-01-12T19:52:33.194Z,8.95
2023-01-12T19:55:23.866Z,9.07
2023-01-12T19:58:13.728Z,9.02
2023-01-12T20:01:03.028Z,9.05
2023-01-12T20:03:52.549Z,9.13
2023-01-12T20:06:41.837Z,9.21
2023-01-12T20:09:31.039Z,9.21
2023-01-12T20:12:21.928Z,9.11
2023-01-12T20:15:11.812Z,9.13
2023-01-12T20:18:03.114Z,9.28
2023-01-12T20:20:53.391Z,9.07
2023-01-12T20:23:42.594Z,9.26
2023-01-12T20:26:31.981Z,9.20
2023-01-12T20:29:23.641Z,9.15
2023-01-12T20:32:13.034Z,9.16
2023-01-12T20:35:05.392Z,9.16
2023-01-12T20:37:54.890Z,9.18
2023-01-12T20:40:45.328Z,9.22
2023-01-12T20:43:35.337Z,9.20
2023-01-12T20:46:26.644Z,9.19
2023-01-12T20:49:16.788Z,9.21
2023-01-12T20:52:06.061Z,9.20
2023-01-12T20:54:55.492Z,9.24
2023-01-12T20:57:44.757Z,9.32
2023-01-12T21:00:34.204Z,9.35
2023-01-12T21:03:24.946Z,9.30
2023-01-12T21:06:17.459Z,9.25
2023-01-12T21:09:06.909Z,9.34
2023-01-12T21:11:56.085Z,9.23
2023-01-12T21:14:45.382Z,9.25
2023-01-12T21:17:36.051Z,9.20
2023-01-12T21:20:27.027Z,9.15
2023-01-12T21:23:16.392Z,9.15
2023-01-12T21:26:07.826Z,9.05
2023-01-12T21:28:57.101Z,9.09
2023-01-12T21:31:46.506Z,9.02
2023-01-12T21:34:35.826Z,9.00
2023-01-12T21:37:26.448Z,9.09
2023-01-12T21:40:16.790Z,9.21
2023-01-12T21:43:13.221Z,9.22
2023-01-12T21:46:07.490Z,9.17
2023-01-12T21:48:56.825Z,9.07
2023-01-12T21:51:46.175Z,9.12
2023-01-12T21:54:36.804Z,9.07
2023-01-12T21:57:26.230Z,9.07
2023-01-12T22:00:16.767Z,9.19
2023-01-12T22:03:06.279Z,9.18
2023-01-12T22:05:56.492Z,9.27
2023-01-12T22:08:45.765Z,9.22
2023-01-12T22:11:36.383Z,9.37
2023-01-12T22:14:25.923Z,9.38
2023-01-12T22:17:15.259Z,9.46
2023-01-12T22:20:04.689Z,9.36
2023-01-12T22:22:55.402Z,9.32
2023-01-12T22:25:44.577Z,9.41
2023-01-12T22:28:36.664Z,9.50
2023-01-12T22:31:27.238Z,9.47
2023-01-12T22:34:16.558Z,9.60
2023-01-12T22:37:05.839Z,9.56
2023-01-12T22:39:55.841Z,9.50
2023-01-12T22:43:02.881Z,9.50
2023-01-12T22:45:58.113Z,9.45
2023-01-12T22:48:50.769Z,9.35
2023-01-12T22:51:40.067Z,9.49
2023-01-12T22:54:29.487Z,9.36
2023-01-12T22:57:18.692Z,9.48
2023-01-12T23:00:12.713Z,9.45
2023-01-12T23:03:07.933Z,9.46
2023-01-12T23:05:57.711Z,9.57
2023-01-12T23:08:47.272Z,9.51
2023-01-12T23:11:36.553Z,9.55
2023-01-12T23:14:25.799Z,9.52
2023-01-12T23:17:15.481Z,9.44
2023-01-12T23:20:09.048Z,9.42
2023-01-12T23:22:58.269Z,9.44
2023-01-12T23:25:48.726Z,9.24
2023-01-12T23:28:41.135Z,9.47
2023-01-12T23:31:33.479Z,9.28
2023-01-12T23:34:23.061Z,9.44
2023-01-12T23:37:13.652Z,9.48
2023-01-12T23:40:03.523Z,9.35
2023-01-12T23:42:52.786Z,9.29
2023-01-12T23:45:42.052Z,9.21
2023-01-12T23:48:31.233Z,9.10
2023-01-12T23:51:20.626Z,8.93
2023-01-12T23:54:16.219Z,8.94
2023-01-12T23:57:06.083Z,8.86
2023-01-12T23:59:55.802Z,8.82
